createdAt,value
2019-01-26T00:00:25.362Z,34.13
2019-01-26T00:02:56.188Z,35.07
2019-01-26T00:05:27.805Z,34.97
2019-01-26T00:07:58.775Z,37.67
2019-01-26T00:10:29.263Z,35.30
2019-01-26T00:12:59.967Z,36.00
2019-01-26T00:15:30.478Z,39.73
2019-01-26T00:18:01.119Z,40.20
2019-01-26T00:20:36.308Z,38.63
2019-01-26T00:23:03.526Z,36.90
2019-01-26T00:25:37.103Z,36.30
2019-01-26T00:28:07.819Z,37.30
2019-01-26T00:30:38.573Z,39.13
2019-01-26T00:33:10.418Z,39.60
2019-01-26T00:35:41.155Z,37.40
2019-01-26T00:38:11.550Z,36.10
2019-01-26T00:40:43.744Z,35.60
2019-01-26T00:43:16.007Z,37.50
2019-01-26T00:45:46.579Z,39.00
2019-01-26T00:48:17.245Z,37.63
2019-01-26T00:50:47.995Z,39.63
2019-01-26T00:53:21.647Z,33.37
2019-01-26T00:55:52.215Z,35.40
2019-01-26T00:58:23.794Z,37.80
2019-01-26T01:00:54.836Z,36.67
2019-01-26T01:03:25.343Z,36.33
2019-01-26T01:05:56.925Z,33.73
2019-01-26T01:08:30.482Z,37.90
2019-01-26T01:11:01.260Z,36.57
2019-01-26T01:13:31.719Z,34.07
2019-01-26T01:16:02.233Z,36.77
2019-01-26T01:18:32.986Z,36.50
2019-01-26T01:21:03.784Z,32.07
2019-01-26T01:23:34.526Z,31.20
2019-01-26T01:26:05.249Z,30.30
2019-01-26T01:28:35.839Z,35.70
2019-01-26T01:31:06.601Z,33.63
2019-01-26T01:33:37.140Z,29.10
2019-01-26T01:36:08.127Z,31.27
2019-01-26T01:38:38.535Z,32.57
2019-01-26T01:41:08.882Z,32.73
2019-01-26T01:43:39.758Z,35.80
2019-01-26T01:46:10.609Z,32.77
2019-01-26T01:48:41.034Z,32.00
2019-01-26T01:51:11.495Z,27.87
2019-01-26T01:53:42.146Z,29.17
2019-01-26T01:56:12.895Z,27.70
2019-01-26T01:58:43.911Z,26.57
2019-01-26T02:01:14.697Z,28.57
2019-01-26T02:03:45.112Z,29.63
2019-01-26T02:06:15.495Z,28.37
2019-01-26T02:08:46.362Z,28.77
2019-01-26T02:11:16.906Z,24.90
2019-01-26T02:13:47.945Z,30.30
2019-01-26T02:16:18.777Z,28.40
2019-01-26T02:18:49.091Z,32.03
2019-01-26T02:21:19.750Z,28.80
2019-01-26T02:23:50.575Z,30.77
2019-01-26T02:26:23.817Z,34.00
2019-01-26T02:28:54.118Z,33.40
2019-01-26T02:31:24.902Z,30.97
2019-01-26T02:33:55.504Z,33.70
2019-01-26T02:36:26.095Z,31.90
2019-01-26T02:38:57.758Z,30.30
2019-01-26T02:41:28.456Z,34.67
2019-01-26T02:43:59.591Z,35.57
2019-01-26T02:46:30.270Z,33.33
2019-01-26T02:49:01.190Z,33.40
2019-01-26T02:51:31.606Z,35.17
2019-01-26T02:54:02.143Z,34.70
2019-01-26T02:56:32.949Z,38.17
2019-01-26T02:59:03.874Z,37.87
2019-01-26T03:01:34.511Z,36.30
2019-01-26T03:04:05.315Z,32.37
2019-01-26T03:06:36.366Z,33.77
2019-01-26T03:09:09.821Z,33.37
2019-01-26T03:11:40.257Z,30.90
2019-01-26T03:14:11.245Z,33.67
2019-01-26T03:16:41.961Z,32.03
2019-01-26T03:19:12.580Z,29.97
2019-01-26T03:21:43.544Z,31.63
2019-01-26T03:24:14.296Z,35.20
2019-01-26T03:26:44.851Z,34.10
2019-01-26T03:29:15.662Z,30.73
2019-01-26T03:31:46.687Z,34.43
2019-01-26T03:34:18.049Z,30.37
2019-01-26T03:36:49.817Z,34.10
2019-01-26T03:42:19.100Z,31.50
2019-01-26T03:44:49.425Z,30.93
2019-01-26T03:47:21.410Z,31.00
2019-01-26T03:49:53.691Z,31.30
2019-01-26T03:52:24.940Z,32.50
2019-01-26T03:54:55.207Z,32.93
2019-01-26T03:57:25.980Z,32.30
2019-01-26T03:59:56.291Z,30.27
2019-01-26T04:02:27.263Z,31.57
2019-01-26T04:04:57.730Z,35.17
2019-01-26T04:07:28.607Z,31.30
2019-01-26T04:09:59.491Z,30.97
2019-01-26T04:12:30.312Z,33.20
2019-01-26T04:15:01.735Z,32.60
2019-01-26T04:17:33.256Z,31.70
2019-01-26T04:20:08.163Z,32.07
2019-01-26T04:22:38.743Z,32.63
2019-01-26T04:25:09.237Z,32.17
2019-01-26T04:27:39.908Z,32.83
2019-01-26T04:30:14.575Z,33.43
2019-01-26T04:32:45.252Z,33.53
2019-01-26T04:35:16.823Z,30.57
2019-01-26T04:37:47.471Z,29.80
2019-01-26T04:40:19.333Z,31.30
2019-01-26T04:42:50.380Z,29.20
2019-01-26T04:45:23.285Z,29.50
2019-01-26T04:47:54.298Z,29.17
2019-01-26T04:50:25.730Z,30.80
2019-01-26T04:52:57.053Z,33.73
2019-01-26T04:55:28.016Z,31.70
2019-01-26T04:57:58.543Z,32.43
2019-01-26T05:00:29.900Z,27.97
2019-01-26T05:03:00.855Z,29.27
2019-01-26T05:05:32.606Z,27.60
2019-01-26T05:08:03.630Z,29.83
2019-01-26T05:10:34.419Z,27.70
2019-01-26T05:13:05.097Z,28.60
2019-01-26T05:15:37.358Z,30.60
2019-01-26T05:18:08.389Z,28.33
2019-01-26T05:20:38.930Z,27.07
2019-01-26T05:23:09.360Z,26.93
2019-01-26T05:25:39.746Z,24.20
2019-01-26T05:28:13.248Z,24.80
2019-01-26T05:30:43.701Z,23.50
2019-01-26T05:33:14.377Z,28.60
2019-01-26T05:35:45.509Z,24.30
2019-01-26T05:38:16.137Z,23.40
2019-01-26T05:40:47.078Z,23.30
2019-01-26T05:43:17.753Z,27.20
2019-01-26T05:45:48.582Z,23.77
2019-01-26T05:48:19.558Z,24.67
2019-01-26T05:50:50.048Z,24.97
2019-01-26T05:53:20.557Z,27.33
2019-01-26T05:55:50.911Z,25.80
2019-01-26T05:58:22.532Z,25.43
2019-01-26T06:00:53.908Z,25.70
2019-01-26T06:03:25.512Z,23.90
2019-01-26T06:05:55.773Z,24.30
2019-01-26T06:08:26.808Z,26.27
2019-01-26T06:10:57.510Z,27.27
2019-01-26T06:13:28.462Z,25.90
2019-01-26T06:15:59.504Z,24.47
2019-01-26T06:18:30.317Z,27.50
2019-01-26T06:21:00.851Z,25.83
2019-01-26T06:23:31.964Z,26.60
2019-01-26T06:26:03.107Z,25.70
2019-01-26T06:28:33.511Z,25.77
2019-01-26T06:31:04.297Z,26.83
2019-01-26T06:33:35.178Z,25.27
2019-01-26T06:36:08.529Z,25.17
2019-01-26T06:38:39.310Z,25.87
2019-01-26T06:41:09.776Z,25.20
2019-01-26T06:43:40.598Z,25.00
2019-01-26T06:46:11.101Z,24.67
2019-01-26T06:48:42.240Z,24.47
2019-01-26T06:51:13.095Z,24.17
2019-01-26T06:53:44.168Z,22.50
2019-01-26T06:56:14.791Z,25.40
2019-01-26T06:58:46.293Z,24.67
2019-01-26T07:01:17.115Z,26.13
2019-01-26T07:03:48.634Z,24.80
2019-01-26T07:06:31.233Z,23.87
2019-01-26T07:09:01.944Z,22.70
2019-01-26T07:11:32.946Z,20.60
2019-01-26T07:14:04.362Z,22.10
2019-01-26T07:16:35.015Z,25.10
2019-01-26T07:19:05.974Z,23.70
2019-01-26T07:21:36.456Z,26.07
2019-01-26T07:24:07.097Z,27.57
2019-01-26T07:26:40.463Z,24.13
2019-01-26T07:29:11.398Z,23.80
2019-01-26T07:31:41.896Z,24.13
2019-01-26T07:34:12.578Z,24.33
2019-01-26T07:36:44.028Z,24.87
2019-01-26T07:39:15.091Z,25.80
2019-01-26T07:41:45.747Z,24.90
2019-01-26T07:44:16.125Z,20.20
2019-01-26T07:46:46.562Z,20.83
2019-01-26T07:49:17.373Z,22.40
2019-01-26T07:51:49.264Z,22.50
2019-01-26T07:54:20.170Z,22.30
2019-01-26T07:56:50.816Z,24.27
2019-01-26T07:59:21.509Z,22.03
2019-01-26T08:01:52.284Z,25.50
2019-01-26T08:04:23.197Z,25.07
2019-01-26T08:06:53.880Z,24.67
2019-01-26T08:09:25.277Z,25.00
2019-01-26T08:11:56.233Z,26.27
2019-01-26T08:14:26.873Z,24.77
2019-01-26T08:16:58.061Z,23.27
2019-01-26T08:19:29.386Z,25.50
2019-01-26T08:22:00.195Z,26.17
2019-01-26T08:24:32.133Z,23.97
2019-01-26T08:27:02.712Z,26.47
2019-01-26T08:29:33.315Z,27.50
2019-01-26T08:32:04.337Z,26.30
2019-01-26T08:34:35.012Z,27.57
2019-01-26T08:37:07.026Z,28.70
2019-01-26T08:39:38.078Z,27.17
2019-01-26T08:42:08.870Z,26.90
2019-01-26T08:44:39.391Z,26.70
2019-01-26T08:47:09.906Z,27.97
2019-01-26T08:49:41.653Z,28.60
2019-01-26T08:52:12.348Z,26.57
2019-01-26T08:54:45.248Z,27.57
2019-01-26T08:57:17.166Z,29.10
2019-01-26T08:59:48.853Z,28.07
2019-01-26T09:02:42.930Z,29.03
2019-01-26T09:05:14.653Z,33.77
2019-01-26T09:07:45.753Z,31.50
2019-01-26T09:10:16.554Z,35.50
2019-01-26T09:12:47.577Z,32.00
2019-01-26T09:15:18.493Z,31.57
2019-01-26T09:17:48.934Z,34.50
2019-01-26T09:20:20.245Z,34.70
2019-01-26T09:22:53.607Z,33.10
2019-01-26T09:25:24.067Z,32.67
2019-01-26T09:27:54.814Z,32.27
2019-01-26T09:30:26.073Z,31.77
2019-01-26T09:32:56.501Z,31.70
2019-01-26T09:35:27.316Z,30.87
2019-01-26T09:37:57.801Z,29.77
2019-01-26T09:40:28.498Z,31.27
2019-01-26T09:42:59.557Z,32.70
2019-01-26T09:45:30.803Z,31.17
2019-01-26T09:48:01.849Z,32.27
2019-01-26T09:50:32.399Z,29.47
2019-01-26T09:53:03.461Z,30.37
2019-01-26T09:55:35.472Z,30.17
2019-01-26T09:58:07.553Z,28.13
2019-01-26T10:00:39.299Z,26.90
2019-01-26T10:03:10.021Z,29.93
2019-01-26T10:05:41.305Z,28.07
2019-01-26T10:08:12.328Z,28.07
2019-01-26T10:10:43.132Z,28.60
2019-01-26T10:13:14.358Z,32.00
2019-01-26T10:15:45.163Z,29.13
2019-01-26T10:18:16.253Z,31.57
2019-01-26T10:20:46.870Z,31.80
2019-01-26T10:23:17.959Z,38.77
2019-01-26T10:25:49.058Z,31.70
2019-01-26T10:28:19.941Z,30.77
2019-01-26T10:30:53.264Z,31.90
2019-01-26T10:33:24.397Z,40.47
2019-01-26T10:36:16.656Z,34.73
2019-01-26T10:38:55.640Z,35.03
2019-01-26T10:42:00.926Z,41.33
2019-01-26T10:44:32.993Z,41.27
2019-01-26T10:47:03.989Z,39.97
2019-01-26T10:49:34.748Z,36.73
2019-01-26T10:52:05.391Z,37.07
2019-01-26T10:54:38.082Z,35.33
2019-01-26T10:57:09.018Z,39.53
2019-01-26T10:59:39.517Z,39.20
2019-01-26T11:02:10.395Z,38.30
2019-01-26T11:04:40.998Z,41.90
2019-01-26T11:07:11.998Z,45.80
2019-01-26T11:09:42.851Z,39.90
2019-01-26T11:12:13.565Z,42.40
2019-01-26T11:14:44.957Z,42.53
2019-01-26T11:17:15.595Z,40.60
2019-01-26T11:19:46.687Z,42.47
2019-01-26T11:22:17.165Z,41.37
2019-01-26T11:24:48.914Z,43.20
2019-01-26T11:27:20.213Z,46.77
2019-01-26T11:29:51.061Z,46.60
2019-01-26T11:32:25.037Z,41.40
2019-01-26T11:34:55.999Z,38.73
2019-01-26T11:37:26.325Z,43.37
2019-01-26T11:40:05.337Z,40.03
2019-01-26T11:42:37.890Z,41.50
2019-01-26T11:45:34.114Z,34.80
2019-01-26T11:48:24.993Z,39.17
2019-01-26T11:51:00.887Z,41.60
2019-01-26T11:53:32.298Z,39.70
2019-01-26T11:56:14.514Z,36.50
2019-01-26T11:58:45.513Z,40.20
2019-01-26T12:01:38.273Z,41.40
2019-01-26T12:04:34.442Z,38.70
2019-01-26T12:07:13.884Z,40.60
2019-01-26T12:09:45.032Z,39.20
2019-01-26T12:12:15.999Z,41.20
2019-01-26T12:14:46.734Z,43.90
2019-01-26T12:17:19.663Z,46.00
2019-01-26T12:19:50.525Z,47.17
2019-01-26T12:22:21.442Z,43.90
2019-01-26T12:24:53.768Z,44.30
2019-01-26T12:27:24.579Z,40.77
2019-01-26T12:29:55.332Z,48.67
2019-01-26T12:32:26.182Z,44.67
2019-01-26T12:34:57.140Z,48.87
2019-01-26T12:37:27.664Z,55.00
2019-01-26T12:39:58.430Z,48.00
2019-01-26T12:42:28.763Z,48.90
2019-01-26T12:44:59.543Z,53.73
2019-01-26T12:47:31.015Z,49.07
2019-01-26T12:50:02.363Z,56.00
2019-01-26T12:52:33.130Z,54.13
2019-01-26T12:55:03.970Z,50.00
2019-01-26T12:57:35.314Z,52.67
2019-01-26T13:00:08.681Z,50.43
2019-01-26T13:02:40.332Z,48.87
2019-01-26T13:05:11.414Z,48.53
2019-01-26T13:07:42.250Z,50.90
2019-01-26T13:10:20.660Z,60.27
2019-01-26T13:12:51.936Z,56.00
2019-01-26T13:15:23.652Z,49.00
2019-01-26T13:17:54.871Z,47.37
2019-01-26T13:20:25.972Z,50.73
2019-01-26T13:22:57.053Z,50.50
2019-01-26T13:25:27.549Z,46.70
2019-01-26T13:27:58.359Z,47.80
2019-01-26T13:30:29.192Z,48.50
2019-01-26T13:33:00.054Z,46.03
2019-01-26T13:35:30.369Z,42.87
2019-01-26T13:38:00.872Z,40.67
2019-01-26T13:40:31.534Z,41.57
2019-01-26T13:43:02.320Z,39.53
2019-01-26T13:45:33.196Z,34.47
2019-01-26T13:48:04.606Z,33.60
2019-01-26T13:50:35.945Z,36.80
2019-01-26T13:53:07.278Z,36.10
2019-01-26T13:55:37.989Z,35.67
2019-01-26T13:58:08.904Z,34.17
2019-01-26T14:00:40.148Z,31.57
2019-01-26T14:03:11.209Z,35.20
2019-01-26T14:05:42.420Z,30.90
2019-01-26T14:08:13.016Z,32.73
2019-01-26T14:10:44.301Z,32.00
2019-01-26T14:13:15.811Z,29.83
2019-01-26T14:15:46.820Z,29.70
2019-01-26T14:18:18.092Z,28.77
2019-01-26T14:20:49.153Z,29.60
2019-01-26T14:23:20.141Z,28.63
2019-01-26T14:25:52.071Z,26.50
2019-01-26T14:28:23.121Z,23.67
2019-01-26T14:30:59.224Z,23.50
2019-01-26T14:33:30.048Z,21.10
2019-01-26T14:36:01.309Z,23.73
2019-01-26T14:38:33.738Z,21.50
2019-01-26T14:41:05.866Z,20.30
2019-01-26T14:43:38.184Z,20.83
2019-01-26T14:46:08.740Z,21.43
2019-01-26T14:48:40.261Z,22.17
2019-01-26T14:51:11.398Z,21.77
2019-01-26T14:53:47.658Z,21.53
2019-01-26T14:56:16.007Z,24.30
2019-01-26T14:58:47.500Z,26.50
2019-01-26T15:01:18.511Z,24.90
2019-01-26T15:03:49.836Z,24.63
2019-01-26T15:06:20.943Z,22.30
2019-01-26T15:08:51.701Z,19.50
2019-01-26T15:11:23.768Z,21.67
2019-01-26T15:13:54.467Z,22.40
2019-01-26T15:16:25.791Z,22.00
2019-01-26T15:18:56.463Z,23.60
2019-01-26T15:21:27.544Z,21.70
2019-01-26T15:23:59.472Z,24.90
2019-01-26T15:26:31.338Z,27.93
2019-01-26T15:29:02.497Z,33.17
2019-01-26T15:31:32.746Z,32.20
2019-01-26T15:34:03.909Z,30.27
2019-01-26T15:36:36.010Z,29.10
2019-01-26T15:39:10.450Z,30.83
2019-01-26T15:41:42.204Z,32.47
2019-01-26T15:44:15.485Z,30.87
2019-01-26T15:46:46.248Z,29.43
2019-01-26T15:49:17.451Z,32.70
2019-01-26T15:51:48.392Z,31.23
2019-01-26T15:54:20.898Z,29.77
2019-01-26T15:56:51.695Z,30.03
2019-01-26T15:59:23.698Z,33.27
2019-01-26T16:01:54.697Z,32.43
2019-01-26T16:04:26.241Z,31.30
2019-01-26T16:06:57.280Z,34.53
2019-01-26T16:09:28.466Z,33.80
2019-01-26T16:12:00.812Z,32.20
2019-01-26T16:14:32.816Z,30.30
2019-01-26T16:17:03.887Z,39.83
2019-01-26T16:19:35.277Z,40.77
2019-01-26T16:22:06.618Z,43.77
2019-01-26T16:24:38.309Z,44.33
2019-01-26T16:27:09.704Z,40.80
2019-01-26T16:29:41.914Z,41.67
2019-01-26T16:32:13.765Z,41.93
2019-01-26T16:34:48.904Z,41.23
2019-01-26T16:37:19.624Z,40.93
2019-01-26T16:39:50.587Z,40.20
2019-01-26T16:42:21.581Z,39.60
2019-01-26T16:44:52.482Z,40.20
2019-01-26T16:47:24.008Z,38.00
2019-01-26T16:49:57.665Z,37.10
2019-01-26T16:52:29.202Z,36.87
2019-01-26T16:55:00.621Z,34.00
2019-01-26T16:57:31.860Z,33.23
2019-01-26T17:00:02.777Z,32.53
2019-01-26T17:02:37.009Z,32.93
2019-01-26T17:05:08.930Z,34.67
2019-01-26T17:07:39.732Z,34.40
2019-01-26T17:10:12.938Z,35.73
2019-01-26T17:12:45.314Z,38.33
2019-01-26T17:15:16.920Z,38.67
2019-01-26T17:17:49.157Z,36.77
2019-01-26T17:20:34.574Z,36.00
2019-01-26T17:23:01.011Z,36.07
2019-01-26T17:25:33.265Z,34.77
2019-01-26T17:28:04.346Z,37.57
2019-01-26T17:30:38.002Z,38.20
2019-01-26T17:33:10.603Z,35.87
2019-01-26T17:35:42.233Z,42.30
2019-01-26T17:38:13.383Z,41.87
2019-01-26T17:40:45.662Z,41.50
2019-01-26T17:43:18.232Z,43.37
2019-01-26T17:45:49.896Z,43.53
2019-01-26T17:48:24.306Z,42.00
2019-01-26T17:50:59.329Z,45.77
2019-01-26T17:53:30.291Z,41.40
2019-01-26T17:56:01.462Z,40.93
2019-01-26T17:58:33.700Z,34.97
2019-01-26T18:01:07.688Z,34.40
2019-01-26T18:03:38.981Z,35.30
2019-01-26T18:06:09.737Z,35.77
2019-01-26T18:08:42.291Z,35.10
2019-01-26T18:11:14.386Z,31.30
2019-01-26T18:13:45.282Z,31.93
2019-01-26T18:16:16.442Z,29.83
2019-01-26T18:18:47.940Z,34.67
2019-01-26T18:21:18.868Z,33.60
2019-01-26T18:23:50.231Z,32.40
2019-01-26T18:26:21.001Z,33.83
2019-01-26T18:28:53.327Z,33.77
2019-01-26T18:31:25.891Z,34.77
2019-01-26T18:33:57.551Z,34.27
2019-01-26T18:36:30.720Z,36.03
2019-01-26T18:39:01.582Z,36.33
2019-01-26T18:41:32.956Z,38.07
2019-01-26T18:44:04.017Z,38.03
2019-01-26T18:46:36.633Z,38.47
2019-01-26T18:49:07.660Z,36.60
2019-01-26T18:51:39.666Z,37.50
2019-01-26T18:54:11.191Z,39.70
2019-01-26T18:56:43.268Z,41.10
2019-01-26T18:59:15.545Z,39.30
2019-01-26T19:01:47.553Z,39.20
2019-01-26T19:04:31.824Z,40.20
2019-01-26T19:07:03.451Z,40.20
2019-01-26T19:09:34.973Z,35.83
2019-01-26T19:12:08.437Z,40.10
2019-01-26T19:14:40.201Z,37.00
2019-01-26T19:17:12.024Z,36.53
2019-01-26T19:19:43.966Z,38.27
2019-01-26T19:22:15.542Z,35.73
2019-01-26T19:24:47.074Z,35.87
2019-01-26T19:27:18.546Z,37.43
2019-01-26T19:29:49.728Z,38.97
2019-01-26T19:32:21.498Z,39.03
2019-01-26T19:34:52.930Z,42.57
2019-01-26T19:37:24.637Z,40.37
2019-01-26T19:39:57.413Z,41.30
2019-01-26T19:42:29.953Z,42.00
2019-01-26T19:45:01.510Z,42.20
2019-01-26T19:47:33.116Z,45.80
2019-01-26T19:50:06.236Z,43.87
2019-01-26T19:52:37.553Z,42.50
2019-01-26T19:55:11.820Z,41.67
2019-01-26T19:57:42.634Z,38.07
2019-01-26T20:00:14.311Z,37.90
2019-01-26T20:02:48.093Z,35.90
2019-01-26T20:05:20.459Z,37.10
2019-01-26T20:07:53.620Z,37.57
2019-01-26T20:10:25.035Z,37.17
2019-01-26T20:12:56.149Z,36.50
2019-01-26T20:15:28.134Z,35.30
2019-01-26T20:17:59.938Z,36.80
2019-01-26T20:20:33.799Z,36.47
2019-01-26T20:23:06.031Z,35.97
2019-01-26T20:25:37.424Z,33.90
2019-01-26T20:28:09.746Z,36.70
2019-01-26T20:30:40.663Z,34.60
2019-01-26T20:33:11.540Z,34.97
2019-01-26T20:35:43.814Z,33.47
2019-01-26T20:38:17.360Z,37.30
2019-01-26T20:40:48.486Z,36.23
2019-01-26T20:43:20.192Z,36.10
2019-01-26T20:45:51.977Z,35.90
2019-01-26T20:48:23.382Z,36.20
2019-01-26T20:50:57.743Z,34.20
2019-01-26T20:53:28.552Z,32.93
2019-01-26T20:55:59.638Z,34.17
2019-01-26T20:58:32.374Z,33.40
2019-01-26T21:01:04.532Z,37.47
2019-01-26T21:03:36.218Z,35.63
2019-01-26T21:06:08.779Z,37.07
2019-01-26T21:08:40.959Z,38.67
2019-01-26T21:11:12.442Z,38.20
2019-01-26T21:13:46.458Z,38.57
2019-01-26T21:16:19.447Z,40.67
2019-01-26T21:18:50.687Z,37.73
2019-01-26T21:21:21.965Z,39.13
2019-01-26T21:23:54.508Z,38.10
2019-01-26T21:26:26.316Z,37.00
2019-01-26T21:28:58.164Z,37.77
2019-01-26T21:31:33.255Z,37.97
2019-01-26T21:34:09.423Z,37.87
2019-01-26T21:36:40.461Z,37.73
2019-01-26T21:39:11.826Z,36.53
2019-01-26T21:41:43.595Z,42.17
2019-01-26T21:44:20.596Z,49.90
2019-01-26T21:46:51.639Z,45.80
2019-01-26T21:49:23.271Z,45.60
2019-01-26T21:51:53.768Z,46.63
2019-01-26T21:54:24.377Z,44.37
2019-01-26T21:56:55.823Z,45.37
2019-01-26T21:59:26.545Z,45.83
2019-01-26T22:01:57.481Z,42.30
2019-01-26T22:04:28.148Z,51.53
2019-01-26T22:06:59.613Z,55.93
2019-01-26T22:09:30.703Z,53.30
2019-01-26T22:12:02.360Z,49.33
2019-01-26T22:14:33.173Z,45.57
2019-01-26T22:17:03.569Z,43.30
2019-01-26T22:19:35.127Z,43.00
2019-01-26T22:22:06.138Z,41.43
2019-01-26T22:24:36.863Z,44.10
2019-01-26T22:27:07.748Z,42.33
2019-01-26T22:29:39.158Z,42.13
2019-01-26T22:32:10.201Z,42.47
2019-01-26T22:34:40.978Z,41.53
2019-01-26T22:37:11.508Z,42.70
2019-01-26T22:39:42.236Z,41.73
2019-01-26T22:42:12.667Z,42.93
2019-01-26T22:44:42.739Z,41.60
2019-01-26T22:47:13.435Z,40.90
2019-01-26T22:49:44.456Z,40.13
2019-01-26T22:52:15.092Z,41.30
2019-01-26T22:54:45.958Z,41.37
2019-01-26T22:57:17.131Z,41.50
2019-01-26T22:59:48.150Z,41.20
2019-01-26T23:02:18.938Z,41.47
2019-01-26T23:05:38.390Z,39.07
2019-01-26T23:08:18.622Z,40.00
2019-01-26T23:11:04.921Z,39.43
2019-01-26T23:14:00.145Z,40.90
2019-01-26T23:17:14.505Z,40.67
2019-01-26T23:20:28.401Z,34.30
2019-01-26T23:23:48.366Z,36.67
2019-01-26T23:26:35.651Z,35.87
2019-01-26T23:29:26.499Z,34.77
2019-01-26T23:31:57.159Z,35.47
2019-01-26T23:34:27.745Z,34.30
2019-01-26T23:36:58.389Z,32.87
2019-01-26T23:39:28.868Z,34.40
2019-01-26T23:41:59.784Z,33.20
2019-01-26T23:44:30.285Z,33.57
2019-01-26T23:47:00.624Z,30.70
2019-01-26T23:49:31.910Z,29.80
2019-01-26T23:52:03.034Z,29.07
2019-01-26T23:54:33.853Z,29.40
2019-01-26T23:57:04.489Z,29.60
2019-01-26T23:59:35.111Z,27.53
